sensor_id;sensor_type;location;lat;lon;timestamp;P1;durP1;ratioP1;P2;durP2;ratioP2
77872;SDS011;67068;52.116;4.440;2023-02-15T00:01:19;14.23;;;8.93;;
77872;SDS011;67068;52.116;4.440;2023-02-15T00:03:47;15.70;;;9.80;;
77872;SDS011;67068;52.116;4.440;2023-02-15T00:06:12;15.25;;;9.00;;
77872;SDS011;67068;52.116;4.440;2023-02-15T00:08:37;15.73;;;9.23;;
77872;SDS011;67068;52.116;4.440;2023-02-15T00:11:10;14.93;;;9.23;;
77872;SDS011;67068;52.116;4.440;2023-02-15T00:13:36;16.83;;;10.88;;
77872;SDS011;67068;52.116;4.440;2023-02-15T00:16:03;14.80;;;8.40;;
77872;SDS011;67068;52.116;4.440;2023-02-15T00:18:29;14.60;;;8.65;;
77872;SDS011;67068;52.116;4.440;2023-02-15T00:20:55;15.88;;;9.65;;
77872;SDS011;67068;52.116;4.440;2023-02-15T00:23:20;14.83;;;9.27;;
77872;SDS011;67068;52.116;4.440;2023-02-15T00:25:45;16.43;;;9.40;;
77872;SDS011;67068;52.116;4.440;2023-02-15T00:28:13;16.53;;;10.17;;
77872;SDS011;67068;52.116;4.440;2023-02-15T00:30:39;14.95;;;9.15;;
77872;SDS011;67068;52.116;4.440;2023-02-15T00:33:04;15.93;;;9.90;;
77872;SDS011;67068;52.116;4.440;2023-02-15T00:35:29;15.80;;;9.80;;
77872;SDS011;67068;52.116;4.440;2023-02-15T00:37:55;15.83;;;9.73;;
77872;SDS011;67068;52.116;4.440;2023-02-15T00:40:20;15.63;;;9.65;;
77872;SDS011;67068;52.116;4.440;2023-02-15T00:42:45;18.07;;;11.17;;
77872;SDS011;67068;52.116;4.440;2023-02-15T00:45:11;15.33;;;9.17;;
77872;SDS011;67068;52.116;4.440;2023-02-15T00:47:36;15.50;;;10.00;;
77872;SDS011;67068;52.116;4.440;2023-02-15T00:50:01;15.13;;;9.47;;
77872;SDS011;67068;52.116;4.440;2023-02-15T00:52:28;15.70;;;9.60;;
77872;SDS011;67068;52.116;4.440;2023-02-15T00:54:53;13.93;;;8.60;;
77872;SDS011;67068;52.116;4.440;2023-02-15T00:57:18;15.03;;;9.17;;
77872;SDS011;67068;52.116;4.440;2023-02-15T00:59:43;15.27;;;9.53;;
77872;SDS011;67068;52.116;4.440;2023-02-15T01:02:09;14.20;;;9.13;;
77872;SDS011;67068;52.116;4.440;2023-02-15T01:04:34;15.50;;;9.40;;
77872;SDS011;67068;52.116;4.440;2023-02-15T01:06:59;14.23;;;8.80;;
77872;SDS011;67068;52.116;4.440;2023-02-15T01:09:24;15.30;;;8.87;;
77872;SDS011;67068;52.116;4.440;2023-02-15T01:11:49;15.10;;;8.87;;
77872;SDS011;67068;52.116;4.440;2023-02-15T01:14:15;14.10;;;8.07;;
77872;SDS011;67068;52.116;4.440;2023-02-15T01:16:40;14.00;;;8.57;;
77872;SDS011;67068;52.116;4.440;2023-02-15T01:19:05;14.73;;;8.43;;
77872;SDS011;67068;52.116;4.440;2023-02-15T01:21:31;14.38;;;9.45;;
77872;SDS011;67068;52.116;4.440;2023-02-15T01:23:59;13.80;;;8.80;;
77872;SDS011;67068;52.116;4.440;2023-02-15T01:26:24;14.70;;;9.13;;
77872;SDS011;67068;52.116;4.440;2023-02-15T01:28:49;14.17;;;8.33;;
77872;SDS011;67068;52.116;4.440;2023-02-15T01:31:16;13.07;;;8.03;;
77872;SDS011;67068;52.116;4.440;2023-02-15T01:33:42;13.35;;;8.23;;
77872;SDS011;67068;52.116;4.440;2023-02-15T01:36:07;15.23;;;8.82;;
77872;SDS011;67068;52.116;4.440;2023-02-15T01:38:32;13.43;;;8.03;;
77872;SDS011;67068;52.116;4.440;2023-02-15T01:40:59;13.40;;;8.38;;
77872;SDS011;67068;52.116;4.440;2023-02-15T01:43:44;13.95;;;9.38;;
77872;SDS011;67068;52.116;4.440;2023-02-15T01:46:09;13.38;;;8.40;;
77872;SDS011;67068;52.116;4.440;2023-02-15T01:48:36;14.63;;;8.25;;
77872;SDS011;67068;52.116;4.440;2023-02-15T01:51:04;12.60;;;8.25;;
77872;SDS011;67068;52.116;4.440;2023-02-15T01:53:37;12.93;;;8.30;;
77872;SDS011;67068;52.116;4.440;2023-02-15T01:58:29;13.05;;;8.15;;
77872;SDS011;67068;52.116;4.440;2023-02-15T02:00:56;11.80;;;7.45;;
77872;SDS011;67068;52.116;4.440;2023-02-15T02:03:24;13.50;;;7.63;;
77872;SDS011;67068;52.116;4.440;2023-02-15T02:05:52;13.45;;;7.53;;
77872;SDS011;67068;52.116;4.440;2023-02-15T02:08:17;13.33;;;8.33;;
77872;SDS011;67068;52.116;4.440;2023-02-15T02:10:43;14.63;;;8.30;;
77872;SDS011;67068;52.116;4.440;2023-02-15T02:13:08;13.30;;;7.67;;
77872;SDS011;67068;52.116;4.440;2023-02-15T02:28:28;12.27;;;7.75;;
77872;SDS011;67068;52.116;4.440;2023-02-15T02:36:13;13.35;;;8.65;;
77872;SDS011;67068;52.116;4.440;2023-02-15T02:38:56;14.70;;;8.25;;
77872;SDS011;67068;52.116;4.440;2023-02-15T02:41:32;13.02;;;7.32;;
77872;SDS011;67068;52.116;4.440;2023-02-15T02:46:48;13.10;;;7.70;;
77872;SDS011;67068;52.116;4.440;2023-02-15T02:49:15;12.07;;;7.18;;
77872;SDS011;67068;52.116;4.440;2023-02-15T02:51:40;12.85;;;7.97;;
77872;SDS011;67068;52.116;4.440;2023-02-15T02:54:06;12.67;;;8.10;;
77872;SDS011;67068;52.116;4.440;2023-02-15T02:56:34;12.27;;;7.95;;
77872;SDS011;67068;52.116;4.440;2023-02-15T02:59:09;12.07;;;7.35;;
77872;SDS011;67068;52.116;4.440;2023-02-15T03:01:46;13.38;;;7.63;;
77872;SDS011;67068;52.116;4.440;2023-02-15T03:04:14;11.93;;;7.32;;
77872;SDS011;67068;52.116;4.440;2023-02-15T03:06:46;13.02;;;7.47;;
77872;SDS011;67068;52.116;4.440;2023-02-15T03:09:16;12.55;;;7.55;;
77872;SDS011;67068;52.116;4.440;2023-02-15T03:11:43;13.20;;;8.65;;
77872;SDS011;67068;52.116;4.440;2023-02-15T03:14:09;11.90;;;6.78;;
77872;SDS011;67068;52.116;4.440;2023-02-15T03:16:35;13.77;;;8.05;;
77872;SDS011;67068;52.116;4.440;2023-02-15T03:19:01;12.32;;;7.72;;
77872;SDS011;67068;52.116;4.440;2023-02-15T03:21:34;12.65;;;7.47;;
77872;SDS011;67068;52.116;4.440;2023-02-15T03:24:03;11.57;;;7.03;;
77872;SDS011;67068;52.116;4.440;2023-02-15T03:26:30;12.07;;;6.85;;
77872;SDS011;67068;52.116;4.440;2023-02-15T03:28:57;12.13;;;7.30;;
77872;SDS011;67068;52.116;4.440;2023-02-15T03:31:26;12.90;;;7.55;;
77872;SDS011;67068;52.116;4.440;2023-02-15T03:34:03;13.48;;;8.20;;
77872;SDS011;67068;52.116;4.440;2023-02-15T03:36:35;12.35;;;7.45;;
77872;SDS011;67068;52.116;4.440;2023-02-15T03:41:32;12.20;;;6.43;;
77872;SDS011;67068;52.116;4.440;2023-02-15T03:44:00;12.25;;;7.32;;
77872;SDS011;67068;52.116;4.440;2023-02-15T03:46:41;12.43;;;7.22;;
77872;SDS011;67068;52.116;4.440;2023-02-15T03:49:13;12.68;;;7.50;;
77872;SDS011;67068;52.116;4.440;2023-02-15T03:51:40;12.15;;;6.90;;
77872;SDS011;67068;52.116;4.440;2023-02-15T03:54:08;12.35;;;7.38;;
77872;SDS011;67068;52.116;4.440;2023-02-15T03:56:35;12.88;;;7.10;;
77872;SDS011;67068;52.116;4.440;2023-02-15T03:59:01;12.13;;;7.07;;
77872;SDS011;67068;52.116;4.440;2023-02-15T04:04:33;13.05;;;7.63;;
77872;SDS011;67068;52.116;4.440;2023-02-15T04:06:58;12.23;;;6.57;;
77872;SDS011;67068;52.116;4.440;2023-02-15T04:09:24;12.15;;;7.03;;
77872;SDS011;67068;52.116;4.440;2023-02-15T04:12:08;11.65;;;6.78;;
77872;SDS011;67068;52.116;4.440;2023-02-15T04:14:33;12.10;;;7.00;;
77872;SDS011;67068;52.116;4.440;2023-02-15T04:17:17;11.88;;;7.00;;
77872;SDS011;67068;52.116;4.440;2023-02-15T04:19:42;12.57;;;7.70;;
77872;SDS011;67068;52.116;4.440;2023-02-15T04:22:26;12.57;;;6.75;;
77872;SDS011;67068;52.116;4.440;2023-02-15T04:25:10;12.35;;;7.25;;
77872;SDS011;67068;52.116;4.440;2023-02-15T04:27:42;11.57;;;6.40;;
77872;SDS011;67068;52.116;4.440;2023-02-15T04:30:08;11.18;;;7.28;;
77872;SDS011;67068;52.116;4.440;2023-02-15T04:32:34;11.15;;;6.55;;
77872;SDS011;67068;52.116;4.440;2023-02-15T04:34:59;11.10;;;6.28;;
77872;SDS011;67068;52.116;4.440;2023-02-15T04:37:24;11.20;;;6.00;;
77872;SDS011;67068;52.116;4.440;2023-02-15T04:39:49;12.33;;;7.17;;
77872;SDS011;67068;52.116;4.440;2023-02-15T04:42:15;11.83;;;6.60;;
77872;SDS011;67068;52.116;4.440;2023-02-15T04:44:40;10.98;;;6.60;;
77872;SDS011;67068;52.116;4.440;2023-02-15T04:47:05;12.00;;;6.70;;
77872;SDS011;67068;52.116;4.440;2023-02-15T04:49:31;11.50;;;6.50;;
77872;SDS011;67068;52.116;4.440;2023-02-15T04:51:56;12.33;;;6.70;;
77872;SDS011;67068;52.116;4.440;2023-02-15T04:54:21;11.43;;;6.30;;
77872;SDS011;67068;52.116;4.440;2023-02-15T04:56:46;11.10;;;6.40;;
77872;SDS011;67068;52.116;4.440;2023-02-15T04:59:12;11.00;;;6.40;;
77872;SDS011;67068;52.116;4.440;2023-02-15T05:01:37;11.90;;;6.15;;
77872;SDS011;67068;52.116;4.440;2023-02-15T05:04:03;12.52;;;6.55;;
77872;SDS011;67068;52.116;4.440;2023-02-15T05:06:28;11.25;;;6.47;;
77872;SDS011;67068;52.116;4.440;2023-02-15T05:08:53;12.63;;;6.33;;
77872;SDS011;67068;52.116;4.440;2023-02-15T05:11:18;11.93;;;6.70;;
77872;SDS011;67068;52.116;4.440;2023-02-15T05:13:44;11.60;;;6.87;;
77872;SDS011;67068;52.116;4.440;2023-02-15T05:16:09;10.93;;;6.20;;
77872;SDS011;67068;52.116;4.440;2023-02-15T05:18:34;10.87;;;6.13;;
77872;SDS011;67068;52.116;4.440;2023-02-15T05:20:59;11.57;;;6.00;;
77872;SDS011;67068;52.116;4.440;2023-02-15T05:23:25;12.30;;;7.10;;
77872;SDS011;67068;52.116;4.440;2023-02-15T05:25:50;11.23;;;6.03;;
77872;SDS011;67068;52.116;4.440;2023-02-15T05:28:34;12.90;;;5.82;;
77872;SDS011;67068;52.116;4.440;2023-02-15T05:33:28;10.68;;;6.10;;
77872;SDS011;67068;52.116;4.440;2023-02-15T05:35:53;10.30;;;5.80;;
77872;SDS011;67068;52.116;4.440;2023-02-15T05:38:18;12.93;;;6.50;;
77872;SDS011;67068;52.116;4.440;2023-02-15T05:40:43;11.50;;;5.77;;
77872;SDS011;67068;52.116;4.440;2023-02-15T05:43:09;11.93;;;6.23;;
77872;SDS011;67068;52.116;4.440;2023-02-15T05:45:34;11.00;;;6.00;;
77872;SDS011;67068;52.116;4.440;2023-02-15T05:47:59;10.93;;;5.43;;
77872;SDS011;67068;52.116;4.440;2023-02-15T05:50:25;11.80;;;5.80;;
77872;SDS011;67068;52.116;4.440;2023-02-15T05:52:50;11.48;;;5.85;;
77872;SDS011;67068;52.116;4.440;2023-02-15T05:55:16;11.75;;;7.22;;
77872;SDS011;67068;52.116;4.440;2023-02-15T05:57:41;12.03;;;6.20;;
77872;SDS011;67068;52.116;4.440;2023-02-15T06:00:06;12.27;;;7.20;;
77872;SDS011;67068;52.116;4.440;2023-02-15T06:02:33;12.05;;;6.95;;
77872;SDS011;67068;52.116;4.440;2023-02-15T06:04:59;12.20;;;6.53;;
77872;SDS011;67068;52.116;4.440;2023-02-15T06:07:24;11.80;;;6.63;;
77872;SDS011;67068;52.116;4.440;2023-02-15T06:09:49;12.25;;;6.35;;
77872;SDS011;67068;52.116;4.440;2023-02-15T06:12:14;13.03;;;7.07;;
77872;SDS011;67068;52.116;4.440;2023-02-15T06:14:40;13.53;;;6.90;;
77872;SDS011;67068;52.116;4.440;2023-02-15T06:17:05;13.23;;;6.95;;
77872;SDS011;67068;52.116;4.440;2023-02-15T06:19:31;12.48;;;6.70;;
77872;SDS011;67068;52.116;4.440;2023-02-15T06:21:56;12.93;;;7.67;;
77872;SDS011;67068;52.116;4.440;2023-02-15T06:24:21;13.50;;;7.10;;
77872;SDS011;67068;52.116;4.440;2023-02-15T06:26:47;11.67;;;6.23;;
77872;SDS011;67068;52.116;4.440;2023-02-15T06:29:12;12.57;;;6.50;;
77872;SDS011;67068;52.116;4.440;2023-02-15T06:31:37;11.70;;;7.00;;
77872;SDS011;67068;52.116;4.440;2023-02-15T06:34:02;13.10;;;7.17;;
77872;SDS011;67068;52.116;4.440;2023-02-15T06:36:28;11.60;;;6.37;;
77872;SDS011;67068;52.116;4.440;2023-02-15T06:38:53;12.93;;;6.38;;
77872;SDS011;67068;52.116;4.440;2023-02-15T06:41:19;12.27;;;6.82;;
77872;SDS011;67068;52.116;4.440;2023-02-15T06:43:44;12.73;;;6.37;;
77872;SDS011;67068;52.116;4.440;2023-02-15T06:46:09;14.30;;;7.37;;
77872;SDS011;67068;52.116;4.440;2023-02-15T06:48:34;12.30;;;6.17;;
77872;SDS011;67068;52.116;4.440;2023-02-15T06:51:00;14.27;;;6.78;;
77872;SDS011;67068;52.116;4.440;2023-02-15T06:53:25;12.43;;;6.57;;
77872;SDS011;67068;52.116;4.440;2023-02-15T06:55:50;11.43;;;6.27;;
77872;SDS011;67068;52.116;4.440;2023-02-15T06:58:16;12.90;;;6.67;;
77872;SDS011;67068;52.116;4.440;2023-02-15T07:00:41;13.17;;;6.93;;
77872;SDS011;67068;52.116;4.440;2023-02-15T07:03:06;13.23;;;7.13;;
77872;SDS011;67068;52.116;4.440;2023-02-15T07:05:32;12.02;;;6.50;;
77872;SDS011;67068;52.116;4.440;2023-02-15T07:07:58;12.90;;;7.03;;
77872;SDS011;67068;52.116;4.440;2023-02-15T07:10:23;12.10;;;6.78;;
77872;SDS011;67068;52.116;4.440;2023-02-15T07:12:50;12.48;;;6.53;;
77872;SDS011;67068;52.116;4.440;2023-02-15T07:15:16;12.70;;;7.30;;
77872;SDS011;67068;52.116;4.440;2023-02-15T07:17:42;12.88;;;6.80;;
77872;SDS011;67068;52.116;4.440;2023-02-15T07:20:11;12.95;;;6.75;;
77872;SDS011;67068;52.116;4.440;2023-02-15T07:22:36;12.93;;;7.07;;
77872;SDS011;67068;52.116;4.440;2023-02-15T07:25:05;13.03;;;7.27;;
77872;SDS011;67068;52.116;4.440;2023-02-15T07:27:31;13.30;;;7.00;;
77872;SDS011;67068;52.116;4.440;2023-02-15T07:29:56;12.82;;;6.72;;
77872;SDS011;67068;52.116;4.440;2023-02-15T07:32:22;12.13;;;6.13;;
77872;SDS011;67068;52.116;4.440;2023-02-15T07:34:47;12.87;;;7.43;;
77872;SDS011;67068;52.116;4.440;2023-02-15T07:37:12;13.43;;;7.77;;
77872;SDS011;67068;52.116;4.440;2023-02-15T07:39:37;13.00;;;7.87;;
77872;SDS011;67068;52.116;4.440;2023-02-15T07:42:03;12.63;;;6.57;;
77872;SDS011;67068;52.116;4.440;2023-02-15T07:44:28;13.50;;;6.63;;
77872;SDS011;67068;52.116;4.440;2023-02-15T07:46:53;11.80;;;6.53;;
77872;SDS011;67068;52.116;4.440;2023-02-15T07:49:18;13.17;;;6.43;;
77872;SDS011;67068;52.116;4.440;2023-02-15T07:51:43;13.00;;;6.57;;
77872;SDS011;67068;52.116;4.440;2023-02-15T07:54:09;13.53;;;7.03;;
77872;SDS011;67068;52.116;4.440;2023-02-15T07:56:34;12.47;;;6.50;;
77872;SDS011;67068;52.116;4.440;2023-02-15T07:58:59;13.33;;;6.83;;
77872;SDS011;67068;52.116;4.440;2023-02-15T08:01:30;13.45;;;6.55;;
77872;SDS011;67068;52.116;4.440;2023-02-15T08:03:55;13.63;;;7.28;;
77872;SDS011;67068;52.116;4.440;2023-02-15T08:06:21;12.55;;;6.22;;
77872;SDS011;67068;52.116;4.440;2023-02-15T08:08:47;12.70;;;7.03;;
77872;SDS011;67068;52.116;4.440;2023-02-15T08:13:57;12.50;;;6.45;;
77872;SDS011;67068;52.116;4.440;2023-02-15T08:16:25;13.02;;;6.68;;
77872;SDS011;67068;52.116;4.440;2023-02-15T08:18:51;12.70;;;6.45;;
77872;SDS011;67068;52.116;4.440;2023-02-15T08:21:16;12.52;;;6.70;;
77872;SDS011;67068;52.116;4.440;2023-02-15T08:23:42;12.53;;;7.73;;
77872;SDS011;67068;52.116;4.440;2023-02-15T08:26:07;12.83;;;7.67;;
77872;SDS011;67068;52.116;4.440;2023-02-15T08:28:33;12.95;;;7.03;;
77872;SDS011;67068;52.116;4.440;2023-02-15T08:31:05;13.95;;;7.32;;
77872;SDS011;67068;52.116;4.440;2023-02-15T08:33:30;12.88;;;7.32;;
77872;SDS011;67068;52.116;4.440;2023-02-15T08:35:55;13.93;;;7.57;;
77872;SDS011;67068;52.116;4.440;2023-02-15T08:38:21;13.20;;;6.97;;
77872;SDS011;67068;52.116;4.440;2023-02-15T08:40:46;12.83;;;6.73;;
77872;SDS011;67068;52.116;4.440;2023-02-15T08:43:11;12.97;;;6.90;;
77872;SDS011;67068;52.116;4.440;2023-02-15T08:45:37;13.67;;;6.93;;
77872;SDS011;67068;52.116;4.440;2023-02-15T08:48:02;12.83;;;7.17;;
77872;SDS011;67068;52.116;4.440;2023-02-15T08:50:27;13.35;;;7.20;;
77872;SDS011;67068;52.116;4.440;2023-02-15T08:52:52;13.10;;;7.17;;
77872;SDS011;67068;52.116;4.440;2023-02-15T08:55:18;13.83;;;7.03;;
77872;SDS011;67068;52.116;4.440;2023-02-15T08:57:43;13.17;;;7.23;;
77872;SDS011;67068;52.116;4.440;2023-02-15T09:00:10;12.45;;;6.75;;
77872;SDS011;67068;52.116;4.440;2023-02-15T09:02:36;12.43;;;7.13;;
77872;SDS011;67068;52.116;4.440;2023-02-15T09:05:02;13.47;;;7.03;;
77872;SDS011;67068;52.116;4.440;2023-02-15T09:07:27;12.90;;;6.90;;
77872;SDS011;67068;52.116;4.440;2023-02-15T09:09:53;13.00;;;7.18;;
77872;SDS011;67068;52.116;4.440;2023-02-15T09:12:18;13.05;;;7.25;;
77872;SDS011;67068;52.116;4.440;2023-02-15T09:14:44;12.37;;;6.67;;
77872;SDS011;67068;52.116;4.440;2023-02-15T09:17:09;13.33;;;7.37;;
77872;SDS011;67068;52.116;4.440;2023-02-15T09:19:34;14.27;;;7.50;;
77872;SDS011;67068;52.116;4.440;2023-02-15T09:21:59;12.70;;;7.10;;
77872;SDS011;67068;52.116;4.440;2023-02-15T09:24:25;12.95;;;7.65;;
77872;SDS011;67068;52.116;4.440;2023-02-15T09:26:50;13.43;;;7.20;;
77872;SDS011;67068;52.116;4.440;2023-02-15T09:29:16;13.37;;;7.37;;
77872;SDS011;67068;52.116;4.440;2023-02-15T09:31:45;13.07;;;7.38;;
77872;SDS011;67068;52.116;4.440;2023-02-15T09:34:11;12.93;;;7.32;;
77872;SDS011;67068;52.116;4.440;2023-02-15T09:36:38;13.57;;;7.07;;
77872;SDS011;67068;52.116;4.440;2023-02-15T09:49:27;14.50;;;7.70;;
77872;SDS011;67068;52.116;4.440;2023-02-15T09:51:59;14.40;;;7.75;;
77872;SDS011;67068;52.116;4.440;2023-02-15T09:57:00;13.40;;;8.18;;
77872;SDS011;67068;52.116;4.440;2023-02-15T10:02:00;13.98;;;7.78;;
77872;SDS011;67068;52.116;4.440;2023-02-15T10:28:17;13.57;;;8.43;;
77872;SDS011;67068;52.116;4.440;2023-02-15T10:30:50;14.15;;;8.15;;
77872;SDS011;67068;52.116;4.440;2023-02-15T10:33:26;13.85;;;7.40;;
77872;SDS011;67068;52.116;4.440;2023-02-15T10:51:15;14.50;;;8.80;;
77872;SDS011;67068;52.116;4.440;2023-02-15T11:01:46;15.40;;;9.73;;
77872;SDS011;67068;52.116;4.440;2023-02-15T11:06:39;13.47;;;9.53;;
77872;SDS011;67068;52.116;4.440;2023-02-15T11:09:10;13.50;;;9.60;;
77872;SDS011;67068;52.116;4.440;2023-02-15T11:11:38;14.27;;;8.88;;
77872;SDS011;67068;52.116;4.440;2023-02-15T11:14:09;14.50;;;8.65;;
77872;SDS011;67068;52.116;4.440;2023-02-15T11:16:39;13.70;;;8.27;;
77872;SDS011;67068;52.116;4.440;2023-02-15T11:19:06;15.07;;;9.13;;
77872;SDS011;67068;52.116;4.440;2023-02-15T11:21:37;14.43;;;8.07;;
77872;SDS011;67068;52.116;4.440;2023-02-15T11:24:09;14.20;;;9.45;;
77872;SDS011;67068;52.116;4.440;2023-02-15T11:26:39;14.43;;;8.38;;
77872;SDS011;67068;52.116;4.440;2023-02-15T11:29:09;14.43;;;8.40;;
77872;SDS011;67068;52.116;4.440;2023-02-15T11:31:41;13.10;;;8.30;;
77872;SDS011;67068;52.116;4.440;2023-02-15T11:34:12;13.60;;;8.50;;
77872;SDS011;67068;52.116;4.440;2023-02-15T11:36:38;14.70;;;8.82;;
77872;SDS011;67068;52.116;4.440;2023-02-15T11:39:08;13.40;;;8.23;;
77872;SDS011;67068;52.116;4.440;2023-02-15T11:41:35;13.85;;;8.05;;
77872;SDS011;67068;52.116;4.440;2023-02-15T11:44:12;15.63;;;9.02;;
77872;SDS011;67068;52.116;4.440;2023-02-15T11:46:40;14.77;;;8.90;;
77872;SDS011;67068;52.116;4.440;2023-02-15T11:51:49;14.27;;;8.43;;
77872;SDS011;67068;52.116;4.440;2023-02-15T11:54:19;15.63;;;9.15;;
77872;SDS011;67068;52.116;4.440;2023-02-15T11:56:46;15.85;;;9.20;;
77872;SDS011;67068;52.116;4.440;2023-02-15T11:59:18;15.37;;;8.43;;
77872;SDS011;67068;52.116;4.440;2023-02-15T12:01:46;14.63;;;9.05;;
77872;SDS011;67068;52.116;4.440;2023-02-15T12:06:51;14.50;;;9.32;;
77872;SDS011;67068;52.116;4.440;2023-02-15T12:11:48;14.77;;;8.85;;
77872;SDS011;67068;52.116;4.440;2023-02-15T12:14:13;14.80;;;8.73;;
77872;SDS011;67068;52.116;4.440;2023-02-15T12:16:45;14.88;;;8.68;;
77872;SDS011;67068;52.116;4.440;2023-02-15T12:19:13;15.57;;;8.93;;
77872;SDS011;67068;52.116;4.440;2023-02-15T12:21:44;14.70;;;8.73;;
77872;SDS011;67068;52.116;4.440;2023-02-15T12:24:17;22.13;;;13.48;;
77872;SDS011;67068;52.116;4.440;2023-02-15T12:26:43;28.38;;;17.30;;
77872;SDS011;67068;52.116;4.440;2023-02-15T12:29:25;32.72;;;20.05;;
77872;SDS011;67068;52.116;4.440;2023-02-15T12:31:51;33.15;;;20.25;;
77872;SDS011;67068;52.116;4.440;2023-02-15T12:34:27;33.85;;;21.88;;
77872;SDS011;67068;52.116;4.440;2023-02-15T12:36:55;35.78;;;21.85;;
77872;SDS011;67068;52.116;4.440;2023-02-15T12:39:25;34.20;;;21.73;;
77872;SDS011;67068;52.116;4.440;2023-02-15T12:44:23;34.38;;;21.30;;
77872;SDS011;67068;52.116;4.440;2023-02-15T12:49:22;31.48;;;20.13;;
77872;SDS011;67068;52.116;4.440;2023-02-15T12:51:57;33.03;;;19.20;;
77872;SDS011;67068;52.116;4.440;2023-02-15T12:54:36;27.55;;;17.20;;
77872;SDS011;67068;52.116;4.440;2023-02-15T12:57:23;27.00;;;16.55;;
77872;SDS011;67068;52.116;4.440;2023-02-15T12:59:54;27.38;;;16.42;;
77872;SDS011;67068;52.116;4.440;2023-02-15T13:02:24;26.45;;;16.88;;
77872;SDS011;67068;52.116;4.440;2023-02-15T13:04:50;27.67;;;16.50;;
77872;SDS011;67068;52.116;4.440;2023-02-15T13:07:16;24.40;;;15.27;;
77872;SDS011;67068;52.116;4.440;2023-02-15T13:09:41;24.20;;;14.70;;
77872;SDS011;67068;52.116;4.440;2023-02-15T13:14:35;28.10;;;15.80;;
77872;SDS011;67068;52.116;4.440;2023-02-15T13:17:02;29.00;;;14.52;;
77872;SDS011;67068;52.116;4.440;2023-02-15T13:21:59;22.67;;;14.18;;
77872;SDS011;67068;52.116;4.440;2023-02-15T13:24:29;23.02;;;13.88;;
77872;SDS011;67068;52.116;4.440;2023-02-15T13:26:57;22.63;;;14.18;;
77872;SDS011;67068;52.116;4.440;2023-02-15T13:29:34;22.70;;;14.07;;
77872;SDS011;67068;52.116;4.440;2023-02-15T13:32:02;20.38;;;12.38;;
77872;SDS011;67068;52.116;4.440;2023-02-15T13:34:31;21.13;;;14.30;;
77872;SDS011;67068;52.116;4.440;2023-02-15T13:40:12;22.35;;;12.55;;
77872;SDS011;67068;52.116;4.440;2023-02-15T13:42:46;25.98;;;17.48;;
77872;SDS011;67068;52.116;4.440;2023-02-15T13:47:57;33.92;;;21.05;;
77872;SDS011;67068;52.116;4.440;2023-02-15T13:55:54;34.55;;;22.42;;
77872;SDS011;67068;52.116;4.440;2023-02-15T14:03:27;38.63;;;23.98;;
77872;SDS011;67068;52.116;4.440;2023-02-15T14:06:12;41.53;;;24.35;;
77872;SDS011;67068;52.116;4.440;2023-02-15T14:11:16;39.10;;;24.30;;
77872;SDS011;67068;52.116;4.440;2023-02-15T14:21:10;37.72;;;23.75;;
77872;SDS011;67068;52.116;4.440;2023-02-15T14:31:35;34.65;;;22.30;;
77872;SDS011;67068;52.116;4.440;2023-02-15T14:34:02;33.88;;;20.98;;
77872;SDS011;67068;52.116;4.440;2023-02-15T14:36:29;34.22;;;20.63;;
77872;SDS011;67068;52.116;4.440;2023-02-15T14:41:31;30.65;;;18.52;;
77872;SDS011;67068;52.116;4.440;2023-02-15T14:44:10;31.50;;;20.48;;
77872;SDS011;67068;52.116;4.440;2023-02-15T14:46:55;32.40;;;18.48;;
77872;SDS011;67068;52.116;4.440;2023-02-15T14:49:24;30.25;;;17.65;;
77872;SDS011;67068;52.116;4.440;2023-02-15T14:56:43;27.58;;;17.08;;
77872;SDS011;67068;52.116;4.440;2023-02-15T14:59:16;26.80;;;16.67;;
77872;SDS011;67068;52.116;4.440;2023-02-15T15:01:50;25.65;;;14.68;;
77872;SDS011;67068;52.116;4.440;2023-02-15T15:07:01;24.05;;;14.32;;
77872;SDS011;67068;52.116;4.440;2023-02-15T15:09:28;26.85;;;16.02;;
77872;SDS011;67068;52.116;4.440;2023-02-15T15:11:54;25.85;;;15.13;;
77872;SDS011;67068;52.116;4.440;2023-02-15T15:16:57;25.90;;;13.25;;
77872;SDS011;67068;52.116;4.440;2023-02-15T15:22:06;22.48;;;13.15;;
77872;SDS011;67068;52.116;4.440;2023-02-15T15:29:50;22.05;;;13.35;;
77872;SDS011;67068;52.116;4.440;2023-02-15T15:32:16;23.33;;;13.40;;
77872;SDS011;67068;52.116;4.440;2023-02-15T15:37:35;23.05;;;13.25;;
77872;SDS011;67068;52.116;4.440;2023-02-15T15:40:21;21.25;;;12.43;;
77872;SDS011;67068;52.116;4.440;2023-02-15T15:43:51;21.10;;;12.45;;
77872;SDS011;67068;52.116;4.440;2023-02-15T15:48:38;21.17;;;12.18;;
77872;SDS011;67068;52.116;4.440;2023-02-15T15:53:43;19.52;;;12.50;;
77872;SDS011;67068;52.116;4.440;2023-02-15T15:56:15;21.73;;;11.85;;
77872;SDS011;67068;52.116;4.440;2023-02-15T15:58:46;21.13;;;11.82;;
77872;SDS011;67068;52.116;4.440;2023-02-15T16:01:14;18.73;;;11.20;;
77872;SDS011;67068;52.116;4.440;2023-02-15T16:03:48;18.85;;;12.10;;
77872;SDS011;67068;52.116;4.440;2023-02-15T16:06:13;20.00;;;12.07;;
77872;SDS011;67068;52.116;4.440;2023-02-15T16:08:39;19.67;;;11.07;;
77872;SDS011;67068;52.116;4.440;2023-02-15T16:11:10;18.83;;;11.13;;
77872;SDS011;67068;52.116;4.440;2023-02-15T16:13:36;18.60;;;12.05;;
77872;SDS011;67068;52.116;4.440;2023-02-15T16:16:01;17.10;;;9.77;;
77872;SDS011;67068;52.116;4.440;2023-02-15T16:18:27;17.03;;;10.50;;
77872;SDS011;67068;52.116;4.440;2023-02-15T16:20:57;17.33;;;10.65;;
77872;SDS011;67068;52.116;4.440;2023-02-15T16:23:46;16.65;;;10.23;;
77872;SDS011;67068;52.116;4.440;2023-02-15T16:28:39;16.87;;;9.67;;
77872;SDS011;67068;52.116;4.440;2023-02-15T16:33:37;17.13;;;10.15;;
77872;SDS011;67068;52.116;4.440;2023-02-15T16:36:02;15.18;;;9.32;;
77872;SDS011;67068;52.116;4.440;2023-02-15T16:41:07;16.45;;;9.90;;
77872;SDS011;67068;52.116;4.440;2023-02-15T16:43:33;16.33;;;10.02;;
77872;SDS011;67068;52.116;4.440;2023-02-15T16:48:45;14.95;;;8.63;;
77872;SDS011;67068;52.116;4.440;2023-02-15T16:51:13;16.73;;;9.35;;
77872;SDS011;67068;52.116;4.440;2023-02-15T16:53:43;15.45;;;9.15;;
77872;SDS011;67068;52.116;4.440;2023-02-15T16:56:11;14.40;;;8.43;;
77872;SDS011;67068;52.116;4.440;2023-02-15T16:58:38;14.65;;;8.88;;
77872;SDS011;67068;52.116;4.440;2023-02-15T17:01:05;14.10;;;8.68;;
77872;SDS011;67068;52.116;4.440;2023-02-15T17:03:31;18.38;;;9.57;;
77872;SDS011;67068;52.116;4.440;2023-02-15T17:05:57;16.43;;;9.33;;
77872;SDS011;67068;52.116;4.440;2023-02-15T17:08:24;16.17;;;9.52;;
77872;SDS011;67068;52.116;4.440;2023-02-15T17:13:24;15.70;;;8.95;;
77872;SDS011;67068;52.116;4.440;2023-02-15T17:18:25;16.63;;;9.43;;
77872;SDS011;67068;52.116;4.440;2023-02-15T17:20:51;16.63;;;9.38;;
77872;SDS011;67068;52.116;4.440;2023-02-15T17:25:46;16.02;;;9.00;;
77872;SDS011;67068;52.116;4.440;2023-02-15T17:28:22;15.73;;;8.77;;
77872;SDS011;67068;52.116;4.440;2023-02-15T17:30:48;13.88;;;8.27;;
77872;SDS011;67068;52.116;4.440;2023-02-15T17:33:21;14.60;;;9.07;;
77872;SDS011;67068;52.116;4.440;2023-02-15T17:38:27;15.68;;;8.98;;
77872;SDS011;67068;52.116;4.440;2023-02-15T17:40:52;14.77;;;7.97;;
77872;SDS011;67068;52.116;4.440;2023-02-15T17:43:18;15.93;;;9.57;;
77872;SDS011;67068;52.116;4.440;2023-02-15T17:45:47;18.77;;;11.90;;
77872;SDS011;67068;52.116;4.440;2023-02-15T17:48:30;18.80;;;11.35;;
77872;SDS011;67068;52.116;4.440;2023-02-15T17:50:56;18.52;;;11.35;;
77872;SDS011;67068;52.116;4.440;2023-02-15T17:53:21;19.27;;;11.48;;
77872;SDS011;67068;52.116;4.440;2023-02-15T17:55:46;19.30;;;11.20;;